Julian, CA

5:18 AM PDT on July 03, 2015 (GMT -0700)
Pinezanita RV Park & Campgrounds | | Change Station
CLOSE
Current Station
Personal Weather Station
Location: Julian, CA
Elevation: 4698 ft
Nearby Weather Stations

Elev 4698 ft 33.04 °N, 116.56 °W | Updated 8 seconds ago

Clear
Clear
61.0 °F
Feels Like 61.0 °F
N
6.9
Wind Variable Wind from WSW
Gusts 15.0 mph

Today
High -- | Low -- °F
--% Chance of Precip.
Yesterday
High -- | Low -- °F
Precip. -- in
5:41 AM 7:58 PM
Full, 97% visible
Pressure 29.88 in
Visibility -9999.0 miles
Clouds
Dew Point 50 °F
Humidity 68%
Rainfall 0.00 in
Snow Depth Not available.
UV Not available.
Pollen 4.40 out of 12
Air Quality Not available.
Flu Activity Not available.
METAR KCZZ 031152Z AUTO 03004KT 12/12 A2997 RMK AO1 SLP117 T01220117 10189 20122 58006

More Conditions Fewer Conditions

Pressure 29.88 in
Visibility -9999.0 miles
Clouds
Dew Point 50 °F
Humidity 68%
Rainfall 0.00 in
Snow Depth Not available.
UV Not available.
Pollen 4.40 out of 12
Air Quality Not available.
Flu Activity Not available.
METAR KCZZ 031152Z AUTO 03004KT 12/12 A2997 RMK AO1 SLP117 T01220117 10189 20122 58006

More Conditions Fewer Conditions

10-Day Weather Forecast

×

Almanac

Astronomy

Jul. 03, 2015 Rise Set
Actual Time
Civil Twilight
Nautical Twilight
Astronomical Twilight
Moon
Length of Visible Light
Length of Day
Tomorrow will be .
, % of the Moon is Illuminated

Today's Extremes

State Highs State Lows

Community

WunderPhotos

Upload Photos

1,834,656 photos uploaded!

WunderBlogs® & News

Nearby

Air Quality

  Air Quality AQ Index Pollutant
Not available.

Snow Depth

Station Depth Elevation

Earthquake Activity

City Distance Mag. Time & Date
Minimum magnitude displayed is 2.5.

Coastal Water Temperatures

Place Temperature

Stations

Nearby Weather Stations

Station Location Temp. Windchill Dew Point Humidity Wind Precip. Elev Updated Type